Humidity-temperature Sensor

Selected Measurement Type: Air Temperature

 
Air Temperature [°C]     6 entries per hour
Showing data from 8/17/2016 (00:00:00 Z) to 8/16/2016 (00:01:00 Z)
Previous Next [ Day | 3-Days | 7-Days ]
First Last
Prev [ Day | 3-Days | 7-Days ] Next
First Last

Start Time:     :
End Time:     :     
Time (in GMT) :00 :50 :40 :30 :20 :10
Previous Next [ Day | 3-Days | 7-Days ]
First Last
Prev [ Day | 3-Days | 7-Days ] Next
First Last


123 => good data
MM => data is determined as missing
-- => data not received/configured
Back to Top Back to Top
8/17/2016 00:00 to 23:10 20.27 20.35 20.36 20.36 20.40 20.33
8/16/2016 23:00 to 22:10 20.30 20.27 20.32 20.36 20.32 20.30
8/16/2016 22:00 to 21:10 20.32 20.34 20.28 20.25 20.30 20.29
8/16/2016 21:00 to 20:10 20.30 20.31 20.43 20.34 20.30 20.29
8/16/2016 20:00 to 19:10 20.42 20.34 20.31 20.35 20.41 20.40
8/16/2016 19:00 to 18:10 20.33 20.24 20.29 20.29 20.29 20.24
8/16/2016 18:00 to 17:10 20.23 20.25 20.17 20.14 20.20 20.18
8/16/2016 17:00 to 16:10 20.18 20.20 20.20 20.21 20.22 20.16
8/16/2016 16:00 to 15:10 20.23 20.19 20.17 20.14 20.20 20.21
8/16/2016 15:00 to 14:10 20.16 20.12 20.16 20.05 20.05 20.09
8/16/2016 14:00 to 13:10 19.94 20.05 19.82 19.77 19.73 19.69
8/16/2016 13:00 to 12:10 19.67 19.68 19.62 19.61 19.57 19.62
8/16/2016 12:00 to 11:10 19.59 19.54 19.55 19.43 19.48 19.47
8/16/2016 11:00 to 10:10 19.42 19.48 19.45 19.42 19.48 19.44
8/16/2016 10:00 to 9:10 19.45 19.42 19.44 19.42 19.44 19.41
8/16/2016 09:00 to 8:10 19.42 19.41 19.42 19.44 19.42 19.41
8/16/2016 08:00 to 7:10 19.44 19.47 19.47 19.49 19.49 19.50
8/16/2016 07:00 to 6:10 19.51 19.51 19.53 19.57 19.57 19.59
8/16/2016 06:00 to 5:10 19.63 19.61 19.63 19.65 19.68 19.62
8/16/2016 05:00 to 4:10 19.64 19.62 19.60 19.62 19.64 19.65
8/16/2016 04:00 to 3:10 19.69 19.69 19.69 19.71 19.70 19.72
8/16/2016 03:00 to 2:10 19.74 19.75 19.75 19.76 19.78 19.84
8/16/2016 02:00 to 1:10 19.86 19.88 19.88 19.89 19.88 19.93
8/16/2016 01:00 to 0:10 19.93 19.95 19.97 19.97 20.02 20.07